sensor_id;sensor_type;location;lat;lon;timestamp;P1;durP1;ratioP1;P2;durP2;ratioP2
37483;SDS011;23337;52.212;9.926;2022-10-19T00:01:40;3.93;;;1.70;;
37483;SDS011;23337;52.212;9.926;2022-10-19T00:04:06;5.00;;;2.10;;
37483;SDS011;23337;52.212;9.926;2022-10-19T00:06:33;8.10;;;1.77;;
37483;SDS011;23337;52.212;9.926;2022-10-19T00:09:00;7.17;;;2.23;;
37483;SDS011;23337;52.212;9.926;2022-10-19T00:11:28;9.07;;;1.90;;
37483;SDS011;23337;52.212;9.926;2022-10-19T00:13:55;5.90;;;1.80;;
37483;SDS011;23337;52.212;9.926;2022-10-19T00:16:21;8.00;;;2.80;;
37483;SDS011;23337;52.212;9.926;2022-10-19T00:18:47;7.70;;;2.10;;
37483;SDS011;23337;52.212;9.926;2022-10-19T00:21:14;5.00;;;2.10;;
37483;SDS011;23337;52.212;9.926;2022-10-19T00:23:40;8.27;;;2.47;;
37483;SDS011;23337;52.212;9.926;2022-10-19T00:26:06;5.70;;;2.27;;
37483;SDS011;23337;52.212;9.926;2022-10-19T00:28:32;7.67;;;2.37;;
37483;SDS011;23337;52.212;9.926;2022-10-19T00:31:05;8.53;;;2.30;;
37483;SDS011;23337;52.212;9.926;2022-10-19T00:33:32;5.87;;;2.20;;
37483;SDS011;23337;52.212;9.926;2022-10-19T00:35:58;10.03;;;2.80;;
37483;SDS011;23337;52.212;9.926;2022-10-19T00:38:24;8.63;;;2.43;;
37483;SDS011;23337;52.212;9.926;2022-10-19T00:40:50;6.40;;;2.13;;
37483;SDS011;23337;52.212;9.926;2022-10-19T00:43:18;6.33;;;2.20;;
37483;SDS011;23337;52.212;9.926;2022-10-19T00:45:44;9.73;;;2.30;;
37483;SDS011;23337;52.212;9.926;2022-10-19T00:48:11;4.63;;;2.23;;
37483;SDS011;23337;52.212;9.926;2022-10-19T00:50:37;8.27;;;3.00;;
37483;SDS011;23337;52.212;9.926;2022-10-19T00:53:04;8.50;;;2.50;;
37483;SDS011;23337;52.212;9.926;2022-10-19T00:55:30;4.80;;;2.13;;
37483;SDS011;23337;52.212;9.926;2022-10-19T00:57:56;10.47;;;2.10;;
37483;SDS011;23337;52.212;9.926;2022-10-19T01:00:22;3.83;;;2.20;;
37483;SDS011;23337;52.212;9.926;2022-10-19T01:02:48;6.13;;;1.90;;
37483;SDS011;23337;52.212;9.926;2022-10-19T01:05:14;4.80;;;2.03;;
37483;SDS011;23337;52.212;9.926;2022-10-19T01:07:40;5.53;;;2.67;;
37483;SDS011;23337;52.212;9.926;2022-10-19T01:10:06;4.57;;;2.20;;
37483;SDS011;23337;52.212;9.926;2022-10-19T01:12:37;7.10;;;2.57;;
37483;SDS011;23337;52.212;9.926;2022-10-19T01:18:00;7.17;;;2.57;;
37483;SDS011;23337;52.212;9.926;2022-10-19T01:20:47;6.70;;;2.70;;
37483;SDS011;23337;52.212;9.926;2022-10-19T01:23:27;7.07;;;2.40;;
37483;SDS011;23337;52.212;9.926;2022-10-19T01:26:12;6.20;;;2.73;;
37483;SDS011;23337;52.212;9.926;2022-10-19T01:31:31;5.00;;;1.90;;
37483;SDS011;23337;52.212;9.926;2022-10-19T01:34:02;7.13;;;2.50;;
37483;SDS011;23337;52.212;9.926;2022-10-19T01:36:36;9.17;;;2.13;;
37483;SDS011;23337;52.212;9.926;2022-10-19T01:44:06;4.37;;;2.37;;
37483;SDS011;23337;52.212;9.926;2022-10-19T01:46:37;5.50;;;2.07;;
37483;SDS011;23337;52.212;9.926;2022-10-19T01:49:06;5.33;;;2.23;;
37483;SDS011;23337;52.212;9.926;2022-10-19T01:51:34;6.33;;;2.10;;
37483;SDS011;23337;52.212;9.926;2022-10-19T01:54:03;4.27;;;2.13;;
37483;SDS011;23337;52.212;9.926;2022-10-19T01:56:30;5.20;;;2.50;;
37483;SDS011;23337;52.212;9.926;2022-10-19T01:58:59;6.80;;;2.27;;
37483;SDS011;23337;52.212;9.926;2022-10-19T02:01:28;7.83;;;1.53;;
37483;SDS011;23337;52.212;9.926;2022-10-19T02:03:55;5.93;;;1.77;;
37483;SDS011;23337;52.212;9.926;2022-10-19T02:06:22;6.63;;;1.50;;
37483;SDS011;23337;52.212;9.926;2022-10-19T02:08:49;4.03;;;2.10;;
37483;SDS011;23337;52.212;9.926;2022-10-19T02:11:16;7.50;;;3.10;;
37483;SDS011;23337;52.212;9.926;2022-10-19T02:13:43;4.40;;;1.80;;
37483;SDS011;23337;52.212;9.926;2022-10-19T02:16:12;7.17;;;2.30;;
37483;SDS011;23337;52.212;9.926;2022-10-19T02:18:40;6.73;;;2.20;;
37483;SDS011;23337;52.212;9.926;2022-10-19T02:21:07;6.20;;;2.50;;
37483;SDS011;23337;52.212;9.926;2022-10-19T02:23:33;5.33;;;2.00;;
37483;SDS011;23337;52.212;9.926;2022-10-19T02:25:59;7.47;;;2.20;;
37483;SDS011;23337;52.212;9.926;2022-10-19T02:28:26;5.57;;;2.00;;
37483;SDS011;23337;52.212;9.926;2022-10-19T02:30:52;5.33;;;1.80;;
37483;SDS011;23337;52.212;9.926;2022-10-19T02:33:18;4.47;;;1.90;;
37483;SDS011;23337;52.212;9.926;2022-10-19T02:35:44;8.00;;;2.10;;
37483;SDS011;23337;52.212;9.926;2022-10-19T02:38:12;6.67;;;2.10;;
37483;SDS011;23337;52.212;9.926;2022-10-19T02:40:42;6.87;;;1.90;;
37483;SDS011;23337;52.212;9.926;2022-10-19T02:43:13;3.87;;;1.80;;
37483;SDS011;23337;52.212;9.926;2022-10-19T02:45:42;8.97;;;2.10;;
37483;SDS011;23337;52.212;9.926;2022-10-19T02:48:10;8.10;;;2.20;;
37483;SDS011;23337;52.212;9.926;2022-10-19T02:50:37;4.60;;;2.20;;
37483;SDS011;23337;52.212;9.926;2022-10-19T02:53:03;3.30;;;2.40;;
37483;SDS011;23337;52.212;9.926;2022-10-19T02:55:29;6.27;;;2.20;;
37483;SDS011;23337;52.212;9.926;2022-10-19T02:57:55;5.60;;;2.40;;
37483;SDS011;23337;52.212;9.926;2022-10-19T03:00:21;5.63;;;1.50;;
37483;SDS011;23337;52.212;9.926;2022-10-19T03:02:47;7.73;;;2.27;;
37483;SDS011;23337;52.212;9.926;2022-10-19T03:05:13;6.30;;;2.60;;
37483;SDS011;23337;52.212;9.926;2022-10-19T03:07:39;9.03;;;2.37;;
37483;SDS011;23337;52.212;9.926;2022-10-19T03:10:06;7.07;;;3.23;;
37483;SDS011;23337;52.212;9.926;2022-10-19T03:12:32;5.90;;;2.40;;
37483;SDS011;23337;52.212;9.926;2022-10-19T03:14:58;10.67;;;2.63;;
37483;SDS011;23337;52.212;9.926;2022-10-19T03:17:24;8.50;;;2.80;;
37483;SDS011;23337;52.212;9.926;2022-10-19T03:19:50;7.87;;;2.10;;
37483;SDS011;23337;52.212;9.926;2022-10-19T03:22:16;5.37;;;2.07;;
37483;SDS011;23337;52.212;9.926;2022-10-19T03:24:42;7.30;;;2.67;;
37483;SDS011;23337;52.212;9.926;2022-10-19T03:27:08;7.10;;;2.80;;
37483;SDS011;23337;52.212;9.926;2022-10-19T03:29:34;4.53;;;2.00;;
37483;SDS011;23337;52.212;9.926;2022-10-19T03:32:00;6.07;;;2.63;;
37483;SDS011;23337;52.212;9.926;2022-10-19T03:34:25;6.67;;;3.27;;
37483;SDS011;23337;52.212;9.926;2022-10-19T03:36:51;7.13;;;2.23;;
37483;SDS011;23337;52.212;9.926;2022-10-19T03:39:17;6.53;;;2.77;;
37483;SDS011;23337;52.212;9.926;2022-10-19T03:41:43;4.33;;;2.20;;
37483;SDS011;23337;52.212;9.926;2022-10-19T03:44:10;7.87;;;2.90;;
37483;SDS011;23337;52.212;9.926;2022-10-19T03:46:36;5.17;;;2.67;;
37483;SDS011;23337;52.212;9.926;2022-10-19T03:49:02;5.30;;;2.17;;
37483;SDS011;23337;52.212;9.926;2022-10-19T03:51:29;9.60;;;3.13;;
37483;SDS011;23337;52.212;9.926;2022-10-19T03:54:03;6.83;;;2.63;;
37483;SDS011;23337;52.212;9.926;2022-10-19T03:56:30;5.43;;;2.43;;
37483;SDS011;23337;52.212;9.926;2022-10-19T03:58:56;5.67;;;2.30;;
37483;SDS011;23337;52.212;9.926;2022-10-19T04:01:25;5.43;;;2.37;;
37483;SDS011;23337;52.212;9.926;2022-10-19T04:03:52;5.30;;;2.23;;
37483;SDS011;23337;52.212;9.926;2022-10-19T04:06:18;4.43;;;2.23;;
37483;SDS011;23337;52.212;9.926;2022-10-19T04:08:47;7.60;;;2.50;;
37483;SDS011;23337;52.212;9.926;2022-10-19T04:11:14;9.03;;;2.40;;
37483;SDS011;23337;52.212;9.926;2022-10-19T04:13:41;6.33;;;2.67;;
37483;SDS011;23337;52.212;9.926;2022-10-19T04:16:08;5.80;;;2.63;;
37483;SDS011;23337;52.212;9.926;2022-10-19T04:18:34;8.17;;;2.30;;
37483;SDS011;23337;52.212;9.926;2022-10-19T04:21:01;7.50;;;2.93;;
37483;SDS011;23337;52.212;9.926;2022-10-19T04:23:28;5.17;;;2.93;;
37483;SDS011;23337;52.212;9.926;2022-10-19T04:25:58;4.17;;;2.17;;
37483;SDS011;23337;52.212;9.926;2022-10-19T04:28:24;4.80;;;2.40;;
37483;SDS011;23337;52.212;9.926;2022-10-19T04:30:50;8.57;;;3.20;;
37483;SDS011;23337;52.212;9.926;2022-10-19T04:33:16;3.83;;;2.40;;
37483;SDS011;23337;52.212;9.926;2022-10-19T04:35:42;4.03;;;2.27;;
37483;SDS011;23337;52.212;9.926;2022-10-19T04:38:08;6.00;;;2.00;;
37483;SDS011;23337;52.212;9.926;2022-10-19T04:40:37;3.83;;;2.70;;
37483;SDS011;23337;52.212;9.926;2022-10-19T04:43:03;5.67;;;2.07;;
37483;SDS011;23337;52.212;9.926;2022-10-19T04:45:29;9.53;;;2.93;;
37483;SDS011;23337;52.212;9.926;2022-10-19T04:47:55;4.10;;;2.70;;
37483;SDS011;23337;52.212;9.926;2022-10-19T04:50:22;8.20;;;2.40;;
37483;SDS011;23337;52.212;9.926;2022-10-19T04:52:48;5.30;;;2.33;;
37483;SDS011;23337;52.212;9.926;2022-10-19T04:55:14;7.03;;;2.53;;
37483;SDS011;23337;52.212;9.926;2022-10-19T04:57:40;3.63;;;2.37;;
37483;SDS011;23337;52.212;9.926;2022-10-19T05:00:06;5.10;;;2.47;;
37483;SDS011;23337;52.212;9.926;2022-10-19T05:02:32;4.97;;;2.80;;
37483;SDS011;23337;52.212;9.926;2022-10-19T05:04:58;5.23;;;2.10;;
37483;SDS011;23337;52.212;9.926;2022-10-19T05:07:24;5.80;;;2.67;;
37483;SDS011;23337;52.212;9.926;2022-10-19T05:09:50;5.20;;;2.40;;
37483;SDS011;23337;52.212;9.926;2022-10-19T05:12:16;7.60;;;2.73;;
37483;SDS011;23337;52.212;9.926;2022-10-19T05:14:42;8.17;;;2.87;;
37483;SDS011;23337;52.212;9.926;2022-10-19T05:17:08;5.90;;;2.40;;
37483;SDS011;23337;52.212;9.926;2022-10-19T05:19:34;5.30;;;2.53;;
37483;SDS011;23337;52.212;9.926;2022-10-19T05:22:00;6.50;;;3.20;;
37483;SDS011;23337;52.212;9.926;2022-10-19T05:24:25;6.80;;;2.47;;
37483;SDS011;23337;52.212;9.926;2022-10-19T05:26:51;8.47;;;2.70;;
37483;SDS011;23337;52.212;9.926;2022-10-19T05:29:17;5.50;;;2.87;;
37483;SDS011;23337;52.212;9.926;2022-10-19T05:31:43;8.20;;;2.70;;
37483;SDS011;23337;52.212;9.926;2022-10-19T05:34:09;5.57;;;2.30;;
37483;SDS011;23337;52.212;9.926;2022-10-19T05:36:36;8.27;;;3.37;;
37483;SDS011;23337;52.212;9.926;2022-10-19T05:39:07;5.73;;;2.83;;
37483;SDS011;23337;52.212;9.926;2022-10-19T05:41:33;4.20;;;2.60;;
37483;SDS011;23337;52.212;9.926;2022-10-19T05:44:00;5.97;;;2.33;;
37483;SDS011;23337;52.212;9.926;2022-10-19T05:46:26;7.07;;;2.53;;
37483;SDS011;23337;52.212;9.926;2022-10-19T05:48:53;8.87;;;2.67;;
37483;SDS011;23337;52.212;9.926;2022-10-19T05:51:19;6.67;;;2.27;;
37483;SDS011;23337;52.212;9.926;2022-10-19T05:53:46;6.87;;;2.30;;
37483;SDS011;23337;52.212;9.926;2022-10-19T05:56:13;6.57;;;2.80;;
37483;SDS011;23337;52.212;9.926;2022-10-19T05:58:39;8.67;;;2.50;;
37483;SDS011;23337;52.212;9.926;2022-10-19T06:01:05;7.53;;;2.13;;
37483;SDS011;23337;52.212;9.926;2022-10-19T06:03:33;6.03;;;2.37;;
37483;SDS011;23337;52.212;9.926;2022-10-19T06:06:01;7.17;;;2.80;;
37483;SDS011;23337;52.212;9.926;2022-10-19T06:08:27;6.57;;;2.17;;
37483;SDS011;23337;52.212;9.926;2022-10-19T06:10:56;5.13;;;2.50;;
37483;SDS011;23337;52.212;9.926;2022-10-19T06:13:28;5.93;;;2.97;;
37483;SDS011;23337;52.212;9.926;2022-10-19T06:15:54;6.63;;;2.90;;
37483;SDS011;23337;52.212;9.926;2022-10-19T06:18:20;6.73;;;2.37;;
37483;SDS011;23337;52.212;9.926;2022-10-19T06:20:49;5.27;;;2.17;;
37483;SDS011;23337;52.212;9.926;2022-10-19T06:23:15;5.27;;;2.57;;
37483;SDS011;23337;52.212;9.926;2022-10-19T06:25:41;6.57;;;2.93;;
37483;SDS011;23337;52.212;9.926;2022-10-19T06:28:07;5.67;;;2.60;;
37483;SDS011;23337;52.212;9.926;2022-10-19T06:30:37;9.70;;;3.80;;
37483;SDS011;23337;52.212;9.926;2022-10-19T06:33:02;5.63;;;2.80;;
37483;SDS011;23337;52.212;9.926;2022-10-19T06:35:28;4.20;;;2.40;;
37483;SDS011;23337;52.212;9.926;2022-10-19T06:37:55;7.63;;;3.20;;
37483;SDS011;23337;52.212;9.926;2022-10-19T06:40:21;5.67;;;2.87;;
37483;SDS011;23337;52.212;9.926;2022-10-19T06:42:47;5.63;;;3.20;;
37483;SDS011;23337;52.212;9.926;2022-10-19T06:45:13;5.27;;;2.77;;
37483;SDS011;23337;52.212;9.926;2022-10-19T06:47:39;3.83;;;2.50;;
37483;SDS011;23337;52.212;9.926;2022-10-19T06:50:05;5.53;;;2.40;;
37483;SDS011;23337;52.212;9.926;2022-10-19T06:52:32;3.17;;;1.97;;
37483;SDS011;23337;52.212;9.926;2022-10-19T06:54:58;3.27;;;2.50;;
37483;SDS011;23337;52.212;9.926;2022-10-19T06:57:24;5.40;;;2.90;;
37483;SDS011;23337;52.212;9.926;2022-10-19T06:59:50;5.67;;;2.93;;
37483;SDS011;23337;52.212;9.926;2022-10-19T07:02:16;6.77;;;2.70;;
37483;SDS011;23337;52.212;9.926;2022-10-19T07:04:42;9.70;;;3.40;;
37483;SDS011;23337;52.212;9.926;2022-10-19T07:07:08;4.60;;;2.80;;
37483;SDS011;23337;52.212;9.926;2022-10-19T07:09:34;7.20;;;2.60;;
37483;SDS011;23337;52.212;9.926;2022-10-19T07:12:00;6.17;;;2.23;;
37483;SDS011;23337;52.212;9.926;2022-10-19T07:14:26;4.63;;;2.33;;
37483;SDS011;23337;52.212;9.926;2022-10-19T07:16:55;6.77;;;2.10;;
37483;SDS011;23337;52.212;9.926;2022-10-19T07:19:24;6.80;;;2.90;;
37483;SDS011;23337;52.212;9.926;2022-10-19T07:21:50;5.20;;;2.63;;
37483;SDS011;23337;52.212;9.926;2022-10-19T07:24:16;9.30;;;2.40;;
37483;SDS011;23337;52.212;9.926;2022-10-19T07:26:42;5.80;;;2.30;;
37483;SDS011;23337;52.212;9.926;2022-10-19T07:29:08;4.00;;;2.27;;
37483;SDS011;23337;52.212;9.926;2022-10-19T07:31:34;7.40;;;3.20;;
37483;SDS011;23337;52.212;9.926;2022-10-19T07:34:01;6.40;;;2.37;;
37483;SDS011;23337;52.212;9.926;2022-10-19T07:36:28;4.23;;;2.57;;
37483;SDS011;23337;52.212;9.926;2022-10-19T07:38:54;7.47;;;2.57;;
37483;SDS011;23337;52.212;9.926;2022-10-19T07:41:21;7.13;;;2.27;;
37483;SDS011;23337;52.212;9.926;2022-10-19T07:43:48;9.20;;;2.50;;
37483;SDS011;23337;52.212;9.926;2022-10-19T07:46:15;11.47;;;2.60;;
37483;SDS011;23337;52.212;9.926;2022-10-19T07:48:41;9.50;;;3.30;;
37483;SDS011;23337;52.212;9.926;2022-10-19T07:51:08;6.50;;;1.60;;
37483;SDS011;23337;52.212;9.926;2022-10-19T07:53:34;7.17;;;1.70;;
37483;SDS011;23337;52.212;9.926;2022-10-19T07:56:01;4.47;;;1.40;;
37483;SDS011;23337;52.212;9.926;2022-10-19T07:58:27;9.30;;;2.13;;
37483;SDS011;23337;52.212;9.926;2022-10-19T08:00:58;5.90;;;1.10;;
37483;SDS011;23337;52.212;9.926;2022-10-19T08:03:24;8.47;;;2.17;;
37483;SDS011;23337;52.212;9.926;2022-10-19T08:05:50;3.60;;;1.00;;
37483;SDS011;23337;52.212;9.926;2022-10-19T08:08:16;4.33;;;1.63;;
37483;SDS011;23337;52.212;9.926;2022-10-19T08:10:42;5.27;;;1.60;;
37483;SDS011;23337;52.212;9.926;2022-10-19T08:13:08;7.20;;;1.10;;
37483;SDS011;23337;52.212;9.926;2022-10-19T08:15:34;4.40;;;1.03;;
37483;SDS011;23337;52.212;9.926;2022-10-19T08:17:59;7.40;;;1.47;;
37483;SDS011;23337;52.212;9.926;2022-10-19T08:20:25;10.07;;;1.83;;
37483;SDS011;23337;52.212;9.926;2022-10-19T08:22:51;5.30;;;1.50;;
37483;SDS011;23337;52.212;9.926;2022-10-19T08:25:17;5.67;;;1.40;;
37483;SDS011;23337;52.212;9.926;2022-10-19T08:27:44;6.47;;;1.10;;
37483;SDS011;23337;52.212;9.926;2022-10-19T08:30:10;8.17;;;1.70;;
37483;SDS011;23337;52.212;9.926;2022-10-19T08:32:36;5.53;;;2.00;;
37483;SDS011;23337;52.212;9.926;2022-10-19T08:35:02;4.63;;;1.50;;
37483;SDS011;23337;52.212;9.926;2022-10-19T08:37:28;5.20;;;2.17;;
37483;SDS011;23337;52.212;9.926;2022-10-19T08:39:54;5.03;;;1.90;;
37483;SDS011;23337;52.212;9.926;2022-10-19T08:42:22;4.17;;;1.57;;
37483;SDS011;23337;52.212;9.926;2022-10-19T08:44:52;7.70;;;1.27;;
37483;SDS011;23337;52.212;9.926;2022-10-19T08:49:50;6.80;;;1.10;;
37483;SDS011;23337;52.212;9.926;2022-10-19T08:52:20;6.87;;;1.30;;
37483;SDS011;23337;52.212;9.926;2022-10-19T09:00:08;6.67;;;1.43;;
37483;SDS011;23337;52.212;9.926;2022-10-19T09:05:31;5.30;;;1.70;;
37483;SDS011;23337;52.212;9.926;2022-10-19T09:08:01;10.03;;;2.17;;
37483;SDS011;23337;52.212;9.926;2022-10-19T09:10:29;7.00;;;1.57;;
37483;SDS011;23337;52.212;9.926;2022-10-19T09:15:48;5.77;;;2.13;;
37483;SDS011;23337;52.212;9.926;2022-10-19T09:18:13;4.07;;;0.93;;
37483;SDS011;23337;52.212;9.926;2022-10-19T09:20:42;4.20;;;0.70;;
37483;SDS011;23337;52.212;9.926;2022-10-19T09:23:18;4.73;;;1.07;;
37483;SDS011;23337;52.212;9.926;2022-10-19T09:25:44;6.93;;;1.00;;
37483;SDS011;23337;52.212;9.926;2022-10-19T09:30:41;5.50;;;1.37;;
37483;SDS011;23337;52.212;9.926;2022-10-19T09:33:10;6.10;;;1.60;;
37483;SDS011;23337;52.212;9.926;2022-10-19T09:35:40;5.83;;;1.83;;
37483;SDS011;23337;52.212;9.926;2022-10-19T09:38:08;4.57;;;0.90;;
37483;SDS011;23337;52.212;9.926;2022-10-19T09:40:36;5.53;;;1.17;;
37483;SDS011;23337;52.212;9.926;2022-10-19T09:43:04;3.10;;;1.10;;
37483;SDS011;23337;52.212;9.926;2022-10-19T09:48:29;6.13;;;1.27;;
37483;SDS011;23337;52.212;9.926;2022-10-19T09:50:57;4.13;;;1.20;;
37483;SDS011;23337;52.212;9.926;2022-10-19T09:53:23;3.53;;;0.80;;
37483;SDS011;23337;52.212;9.926;2022-10-19T09:55:55;5.10;;;1.17;;
37483;SDS011;23337;52.212;9.926;2022-10-19T09:58:23;5.47;;;0.90;;
37483;SDS011;23337;52.212;9.926;2022-10-19T10:00:51;3.47;;;0.80;;
37483;SDS011;23337;52.212;9.926;2022-10-19T10:03:21;5.40;;;1.03;;
37483;SDS011;23337;52.212;9.926;2022-10-19T10:05:47;3.13;;;0.60;;
37483;SDS011;23337;52.212;9.926;2022-10-19T10:08:17;3.97;;;0.97;;
37483;SDS011;23337;52.212;9.926;2022-10-19T10:10:45;4.63;;;1.33;;
37483;SDS011;23337;52.212;9.926;2022-10-19T10:13:14;4.00;;;1.10;;
37483;SDS011;23337;52.212;9.926;2022-10-19T10:15:42;6.80;;;1.30;;
37483;SDS011;23337;52.212;9.926;2022-10-19T10:18:10;4.33;;;1.00;;
37483;SDS011;23337;52.212;9.926;2022-10-19T10:20:37;3.47;;;0.70;;
37483;SDS011;23337;52.212;9.926;2022-10-19T10:23:04;4.10;;;0.90;;
37483;SDS011;23337;52.212;9.926;2022-10-19T10:25:31;4.43;;;0.90;;
37483;SDS011;23337;52.212;9.926;2022-10-19T10:28:00;4.77;;;1.30;;
37483;SDS011;23337;52.212;9.926;2022-10-19T10:30:28;3.33;;;1.20;;
37483;SDS011;23337;52.212;9.926;2022-10-19T10:32:54;6.70;;;1.90;;
37483;SDS011;23337;52.212;9.926;2022-10-19T10:35:31;2.87;;;1.10;;
37483;SDS011;23337;52.212;9.926;2022-10-19T10:38:03;2.73;;;0.80;;
37483;SDS011;23337;52.212;9.926;2022-10-19T10:40:30;1.77;;;0.57;;
37483;SDS011;23337;52.212;9.926;2022-10-19T10:42:57;4.20;;;1.23;;
37483;SDS011;23337;52.212;9.926;2022-10-19T10:45:28;5.03;;;1.40;;
37483;SDS011;23337;52.212;9.926;2022-10-19T10:47:55;5.47;;;1.40;;
37483;SDS011;23337;52.212;9.926;2022-10-19T10:50:25;7.27;;;1.57;;
37483;SDS011;23337;52.212;9.926;2022-10-19T10:52:56;3.60;;;1.20;;
37483;SDS011;23337;52.212;9.926;2022-10-19T10:55:22;6.43;;;1.70;;
37483;SDS011;23337;52.212;9.926;2022-10-19T10:57:50;1.70;;;0.90;;
37483;SDS011;23337;52.212;9.926;2022-10-19T11:00:19;4.87;;;1.07;;
37483;SDS011;23337;52.212;9.926;2022-10-19T11:02:51;3.23;;;0.80;;
37483;SDS011;23337;52.212;9.926;2022-10-19T11:05:25;3.10;;;0.90;;
37483;SDS011;23337;52.212;9.926;2022-10-19T11:08:00;5.20;;;1.40;;
37483;SDS011;23337;52.212;9.926;2022-10-19T11:10:41;4.20;;;1.20;;
37483;SDS011;23337;52.212;9.926;2022-10-19T11:13:28;5.13;;;1.13;;
37483;SDS011;23337;52.212;9.926;2022-10-19T11:16:03;4.50;;;1.07;;
37483;SDS011;23337;52.212;9.926;2022-10-19T11:18:35;4.10;;;1.20;;
37483;SDS011;23337;52.212;9.926;2022-10-19T11:21:07;8.53;;;1.23;;
37483;SDS011;23337;52.212;9.926;2022-10-19T11:23:36;7.43;;;2.27;;
37483;SDS011;23337;52.212;9.926;2022-10-19T11:36:28;3.77;;;1.50;;
37483;SDS011;23337;52.212;9.926;2022-10-19T11:41:37;4.80;;;1.40;;
37483;SDS011;23337;52.212;9.926;2022-10-19T11:49:47;3.20;;;1.03;;
37483;SDS011;23337;52.212;9.926;2022-10-19T11:54:56;5.27;;;1.40;;
37483;SDS011;23337;52.212;9.926;2022-10-19T11:57:37;4.83;;;1.73;;
37483;SDS011;23337;52.212;9.926;2022-10-19T12:00:19;6.10;;;1.83;;
37483;SDS011;23337;52.212;9.926;2022-10-19T12:05:21;5.53;;;1.90;;
37483;SDS011;23337;52.212;9.926;2022-10-19T12:12:43;3.53;;;0.90;;
37483;SDS011;23337;52.212;9.926;2022-10-19T12:17:36;6.00;;;1.50;;
37483;SDS011;23337;52.212;9.926;2022-10-19T12:20:18;4.17;;;1.37;;
37483;SDS011;23337;52.212;9.926;2022-10-19T12:22:45;5.03;;;1.67;;
37483;SDS011;23337;52.212;9.926;2022-10-19T12:25:11;4.47;;;1.70;;
37483;SDS011;23337;52.212;9.926;2022-10-19T12:27:38;5.13;;;1.50;;
37483;SDS011;23337;52.212;9.926;2022-10-19T12:30:06;3.77;;;1.20;;
37483;SDS011;23337;52.212;9.926;2022-10-19T12:32:35;3.00;;;1.23;;
37483;SDS011;23337;52.212;9.926;2022-10-19T12:35:07;1.47;;;0.80;;
37483;SDS011;23337;52.212;9.926;2022-10-19T12:38:21;5.70;;;1.80;;
37483;SDS011;23337;52.212;9.926;2022-10-19T12:42:59;4.13;;;1.33;;
37483;SDS011;23337;52.212;9.926;2022-10-19T12:45:30;4.13;;;1.80;;
37483;SDS011;23337;52.212;9.926;2022-10-19T12:53:21;6.43;;;1.20;;
37483;SDS011;23337;52.212;9.926;2022-10-19T12:55:56;2.97;;;1.03;;
37483;SDS011;23337;52.212;9.926;2022-10-19T12:58:23;5.30;;;1.30;;
37483;SDS011;23337;52.212;9.926;2022-10-19T13:00:59;2.10;;;1.10;;
37483;SDS011;23337;52.212;9.926;2022-10-19T13:03:39;5.33;;;1.33;;
37483;SDS011;23337;52.212;9.926;2022-10-19T13:06:12;4.30;;;1.40;;
37483;SDS011;23337;52.212;9.926;2022-10-19T13:08:42;4.43;;;1.63;;
37483;SDS011;23337;52.212;9.926;2022-10-19T13:11:11;5.33;;;1.50;;
37483;SDS011;23337;52.212;9.926;2022-10-19T13:27:36;4.97;;;1.40;;
37483;SDS011;23337;52.212;9.926;2022-10-19T13:34:47;4.70;;;1.50;;
37483;SDS011;23337;52.212;9.926;2022-10-19T13:37:13;3.10;;;1.50;;
37483;SDS011;23337;52.212;9.926;2022-10-19T13:39:41;8.60;;;1.97;;
37483;SDS011;23337;52.212;9.926;2022-10-19T13:42:22;3.37;;;1.30;;
37483;SDS011;23337;52.212;9.926;2022-10-19T13:44:50;2.90;;;1.77;;
37483;SDS011;23337;52.212;9.926;2022-10-19T13:47:34;5.50;;;2.27;;
37483;SDS011;23337;52.212;9.926;2022-10-19T13:50:09;4.03;;;2.30;;
37483;SDS011;23337;52.212;9.926;2022-10-19T13:58:30;6.80;;;2.90;;
37483;SDS011;23337;52.212;9.926;2022-10-19T14:01:16;4.83;;;2.80;;
37483;SDS011;23337;52.212;9.926;2022-10-19T14:03:52;4.13;;;2.57;;
37483;SDS011;23337;52.212;9.926;2022-10-19T14:06:32;7.40;;;2.87;;
37483;SDS011;23337;52.212;9.926;2022-10-19T14:11:30;6.93;;;3.20;;
37483;SDS011;23337;52.212;9.926;2022-10-19T14:16:56;3.63;;;2.47;;
37483;SDS011;23337;52.212;9.926;2022-10-19T14:20:03;4.33;;;2.47;;
37483;SDS011;23337;52.212;9.926;2022-10-19T14:22:17;3.03;;;2.20;;
37483;SDS011;23337;52.212;9.926;2022-10-19T14:24:43;5.13;;;2.27;;
37483;SDS011;23337;52.212;9.926;2022-10-19T14:27:10;3.73;;;2.50;;
37483;SDS011;23337;52.212;9.926;2022-10-19T14:29:47;5.57;;;2.93;;
37483;SDS011;23337;52.212;9.926;2022-10-19T14:32:23;6.93;;;2.90;;
37483;SDS011;23337;52.212;9.926;2022-10-19T14:34:50;4.93;;;2.30;;
37483;SDS011;23337;52.212;9.926;2022-10-19T14:37:20;6.43;;;2.47;;
37483;SDS011;23337;52.212;9.926;2022-10-19T14:42:35;6.43;;;2.07;;
37483;SDS011;23337;52.212;9.926;2022-10-19T14:45:01;6.77;;;2.10;;
37483;SDS011;23337;52.212;9.926;2022-10-19T14:47:27;5.77;;;2.20;;
37483;SDS011;23337;52.212;9.926;2022-10-19T14:49:54;4.33;;;2.10;;
37483;SDS011;23337;52.212;9.926;2022-10-19T14:52:26;4.87;;;2.40;;
37483;SDS011;23337;52.212;9.926;2022-10-19T14:54:52;3.77;;;2.17;;
37483;SDS011;23337;52.212;9.926;2022-10-19T14:57:30;5.47;;;3.03;;
37483;SDS011;23337;52.212;9.926;2022-10-19T14:59:58;6.87;;;2.50;;
37483;SDS011;23337;52.212;9.926;2022-10-19T15:02:45;5.73;;;2.10;;
37483;SDS011;23337;52.212;9.926;2022-10-19T15:05:19;8.70;;;2.70;;
37483;SDS011;23337;52.212;9.926;2022-10-19T15:07:45;5.17;;;2.10;;
37483;SDS011;23337;52.212;9.926;2022-10-19T15:10:22;6.40;;;3.00;;
37483;SDS011;23337;52.212;9.926;2022-10-19T15:12:48;3.43;;;2.00;;
37483;SDS011;23337;52.212;9.926;2022-10-19T15:15:24;4.80;;;2.30;;
37483;SDS011;23337;52.212;9.926;2022-10-19T15:17:54;3.30;;;2.30;;
37483;SDS011;23337;52.212;9.926;2022-10-19T15:20:25;3.87;;;2.17;;
37483;SDS011;23337;52.212;9.926;2022-10-19T15:22:52;5.13;;;1.93;;
37483;SDS011;23337;52.212;9.926;2022-10-19T15:25:26;4.93;;;2.17;;
37483;SDS011;23337;52.212;9.926;2022-10-19T15:27:52;8.43;;;2.40;;
37483;SDS011;23337;52.212;9.926;2022-10-19T15:32:48;5.03;;;2.17;;
37483;SDS011;23337;52.212;9.926;2022-10-19T15:35:26;5.33;;;2.23;;
37483;SDS011;23337;52.212;9.926;2022-10-19T15:38:06;4.27;;;2.20;;
37483;SDS011;23337;52.212;9.926;2022-10-19T15:40:37;4.03;;;2.23;;
37483;SDS011;23337;52.212;9.926;2022-10-19T15:45:58;4.57;;;2.47;;
37483;SDS011;23337;52.212;9.926;2022-10-19T15:48:25;5.23;;;2.20;;
37483;SDS011;23337;52.212;9.926;2022-10-19T15:50:51;5.03;;;2.17;;
37483;SDS011;23337;52.212;9.926;2022-10-19T15:53:18;7.33;;;2.27;;
37483;SDS011;23337;52.212;9.926;2022-10-19T15:55:44;3.50;;;2.13;;
37483;SDS011;23337;52.212;9.926;2022-10-19T15:58:11;5.77;;;2.63;;
37483;SDS011;23337;52.212;9.926;2022-10-19T16:00:37;5.13;;;2.97;;
37483;SDS011;23337;52.212;9.926;2022-10-19T16:03:03;4.97;;;2.23;;
37483;SDS011;23337;52.212;9.926;2022-10-19T16:05:29;6.20;;;2.80;;
37483;SDS011;23337;52.212;9.926;2022-10-19T16:07:55;5.20;;;2.40;;
37483;SDS011;23337;52.212;9.926;2022-10-19T16:10:23;7.30;;;2.77;;
37483;SDS011;23337;52.212;9.926;2022-10-19T16:12:49;3.33;;;2.67;;
37483;SDS011;23337;52.212;9.926;2022-10-19T16:15:19;3.27;;;2.50;;
37483;SDS011;23337;52.212;9.926;2022-10-19T16:17:50;6.87;;;2.37;;
37483;SDS011;23337;52.212;9.926;2022-10-19T16:20:16;3.87;;;2.33;;
37483;SDS011;23337;52.212;9.926;2022-10-19T16:22:43;4.63;;;1.83;;
37483;SDS011;23337;52.212;9.926;2022-10-19T16:25:10;6.07;;;2.37;;
37483;SDS011;23337;52.212;9.926;2022-10-19T16:27:36;6.10;;;2.17;;
37483;SDS011;23337;52.212;9.926;2022-10-19T16:30:02;5.67;;;2.57;;
37483;SDS011;23337;52.212;9.926;2022-10-19T16:32:28;3.40;;;1.97;;
37483;SDS011;23337;52.212;9.926;2022-10-19T16:34:54;4.30;;;1.90;;
37483;SDS011;23337;52.212;9.926;2022-10-19T16:37:20;2.77;;;1.63;;
37483;SDS011;23337;52.212;9.926;2022-10-19T16:39:46;6.27;;;1.67;;
37483;SDS011;23337;52.212;9.926;2022-10-19T16:42:12;4.03;;;2.93;;